Pagrindinis puslapis
METAR-TAF:

METAR-TAF

Oro uostai :

Praja, Žaliasis Kyšulys

platuma: 14-55-27N, ilguma: 23-29-38W, Aukštis: 70 m

Dabartinis oras

Ataskaita buvo paskelbta 44 minutes, ne 06:00 UTC
Vėjas 13 kt iš Šiaurės Rytų
Temperatūra 22°C
Drėgmė 78%
Slėgis 1013 hPa
Matomumas: 6000 m
Mažai debesys ne aukštis 1600 ft
Su prošvaistėmis ne aukštis 20000 ft

METAR: GVNP 020600Z 04013KT 6000 FEW016 BKN200 22/18 Q1013 NOSIG

Laikas: 05:44 (06:44 UTC)

Prognozė

Ataskaita buvo paskelbta 1 valandą ir 44 minutes, ne 05:00 UTC
Prognozė galioja nuo 02 metu 06 UTC su 03 metu 12 UTC
Vėjas 18 kt iš Šiaurės/Šiaurės Rytų
Matomumas: 4000 m
Mažai debesys ne aukštis 1600 ft
migla
Tikimybė 40% :
Laikinai
nuo 02 metu 11 UTC su 02 metu 17 UTC
Vėjas 20 kt iš Šiaurės/Šiaurės Rytų su gūsio iki 30 kt
Matomumas: 6000 m

TAF: GVNP 020500Z 0206/0312 03018KT 4000 HZ FEW016 PROB40 TEMPO 0211/0217 03020G30KT 6000

Orai ataskaitas ir orų prognozės (METAR, TAF).

turimą stotys yra geltonos ir raudonos taškus žemėlapyje.

Perkelti pele per norėdami pamatyti stoties vardą.

Tada spustelėkite, norėdami matyti oro stebėjimo ir prognozės.

Norėdami pakeisti žemėlapį: spustelėkite ant žalios mygtukų su juodo kryžiaus žemyn,; žalią mygtuką su brūkšneliu, jei norite nutolinti; arba žalių rodyklių gretimoms žemėlapius.


METAR-TAF: